M/y Tweener — WDH5312 — position and weather

sailwx.info

Track history (hours):
 
Tides and Currents Weather Stations Pressure Air Temp Water Temp Dewpoint Dewpoint Depression Visibility Wind Speed Wind Dir Waves Ship Positions

M/y Tweener

Owner: Kocher III, Thomas L, Fort Lauderdale, FL. More information available from US FCC via Universal Licensing System and Coast Guard Vessel Documentation Center.

Last reported at 2018-Jul-08 18:59 UTC. Time now 2018-Jul-19 02:00 UTC.
Position N 34°02' W 118°39'.
Warning: this ship's position is 10 days out of date.

Length 33 m.

Type: Pleasure craft. MMSI: 367626680.

Date/timePositionNaut miles runAvg speedWind from/ knotsBaromVisibWave heightAir tempDewpointWater temp
2018-Jul-08 18:59N 34°02' W 118°39'10 0.2
2018-Jul-06 16:29N 33°58' W 118°29'1 0.1
2018-Jul-06 04:11N 33°58' W 118°28'1 6.9
2018-Jul-06 03:59N 33°59' W 118°29'3 7.2
2018-Jul-06 03:30N 34°01' W 118°33'2 3.5
2018-Jul-06 02:59N 34°02' W 118°34'0 0.3
2018-Jul-06 02:30N 34°02' W 118°34'3 4.9
2018-Jul-06 01:58N 34°02' W 118°37'  
2018-Jul-02 05:45N 33°28' W 118°30'23 9.3
2018-Jul-02 03:16N 33°32' W 118°03'2 6.5
2018-Jul-02 02:58N 33°33' W 118°01'8 2.4
2018-Jul-01 23:38N 33°33' W 117°51'7 8.7
2018-Jul-01 22:49N 33°29' W 117°58'412.0
2018-Jul-01 22:30N 33°29' W 118°03'  
Track history (hours):
 
Tides and Currents Weather Stations Pressure Air Temp Water Temp Dewpoint Dewpoint Depression Visibility Wind Speed Wind Dir Waves Ship Positions

M/y Tweener

Owner: Kocher III, Thomas L, Fort Lauderdale, FL. More information available from US FCC via Universal Licensing System and Coast Guard Vessel Documentation Center.

Last reported at 2018-Jul-08 18:59 UTC. Time now 2018-Jul-19 02:00 UTC.
Position N 34°02' W 118°39'.
Warning: this ship's position is 10 days out of date.

Length 33 m.

Type: Pleasure craft. MMSI: 367626680.

Date/timePositionNaut miles runAvg speedWind from/ knotsBaromVisibWave heightAir tempDewpointWater temp
2018-Jul-08 18:59N 34°02' W 118°39'10 0.2
2018-Jul-06 16:29N 33°58' W 118°29'1 0.1
2018-Jul-06 04:11N 33°58' W 118°28'1 6.9
2018-Jul-06 03:59N 33°59' W 118°29'3 7.2
2018-Jul-06 03:30N 34°01' W 118°33'2 3.5
2018-Jul-06 02:59N 34°02' W 118°34'0 0.3
2018-Jul-06 02:30N 34°02' W 118°34'3 4.9
2018-Jul-06 01:58N 34°02' W 118°37'  
2018-Jul-02 05:45N 33°28' W 118°30'23 9.3
2018-Jul-02 03:16N 33°32' W 118°03'2 6.5
2018-Jul-02 02:58N 33°33' W 118°01'8 2.4
2018-Jul-01 23:38N 33°33' W 117°51'7 8.7
2018-Jul-01 22:49N 33°29' W 117°58'412.0
2018-Jul-01 22:30N 33°29' W 118°03'  

Dump ship's entire track history